Terminal Aerodrome Forecast
Issued by NWS

Home | Current Version | Previous Version | Text Only | Print | Product List | Glossary On
Versions: 1 2 3 4 5 6 7 8 9 10 11 12 13 14 15 16
011
FTUS46 KLOX 050543
TAFOXR
TAF
KOXR 050543Z 0506/0606 05005KT P6SM BKN250
     FM052000 26009KT P6SM SCT250
     FM060300 VRB03KT P6SM SCT250=

USA.gov is the U.S. government's official web portal to all federal, state and local government web resources and services.